createdAt,value
2023-05-19T00:01:37.726Z,86.92
2023-05-19T00:04:40.815Z,87.05
2023-05-19T00:07:44.220Z,87.66
2023-05-19T00:10:47.225Z,87.53
2023-05-19T00:13:51.153Z,87.00
2023-05-19T00:16:56.021Z,87.04
2023-05-19T00:19:58.509Z,86.27
2023-05-19T00:23:01.297Z,86.56
2023-05-19T00:26:03.733Z,86.65
2023-05-19T00:29:06.444Z,86.98
2023-05-19T00:32:09.042Z,87.16
2023-05-19T00:35:12.452Z,87.52
2023-05-19T00:38:15.074Z,87.58
2023-05-19T00:41:18.212Z,88.26
2023-05-19T00:44:20.568Z,88.56
2023-05-19T00:47:23.215Z,88.86
2023-05-19T00:50:27.422Z,89.09
2023-05-19T00:53:31.852Z,88.90
2023-05-19T00:56:34.337Z,89.63
2023-05-19T00:59:37.065Z,89.88
2023-05-19T01:02:40.102Z,89.72
2023-05-19T01:05:47.564Z,89.75
2023-05-19T01:08:51.646Z,89.55
2023-05-19T01:11:54.329Z,89.59
2023-05-19T01:14:58.756Z,88.70
2023-05-19T01:18:20.794Z,88.37
2023-05-19T01:22:01.170Z,88.76
2023-05-19T01:25:34.200Z,89.01
2023-05-19T01:28:53.196Z,88.80
2023-05-19T01:32:00.124Z,88.73
2023-05-19T01:35:05.630Z,88.82
2023-05-19T01:38:11.352Z,88.62
2023-05-19T01:41:16.949Z,88.48
2023-05-19T01:44:22.304Z,88.26
2023-05-19T01:47:24.967Z,88.58
2023-05-19T01:50:31.958Z,88.60
2023-05-19T01:53:34.632Z,88.57
2023-05-19T01:56:43.738Z,88.84
2023-05-19T01:59:52.095Z,89.47
2023-05-19T02:03:33.099Z,89.54
2023-05-19T02:06:35.709Z,89.87
2023-05-19T02:09:41.946Z,89.70
2023-05-19T02:12:46.140Z,90.10
2023-05-19T02:15:49.902Z,90.22
2023-05-19T02:18:54.045Z,90.28
2023-05-19T02:21:56.847Z,90.14
2023-05-19T02:24:59.252Z,89.95
2023-05-19T02:28:01.933Z,89.96
2023-05-19T02:31:08.802Z,89.92
2023-05-19T02:34:11.513Z,89.78
2023-05-19T02:37:15.559Z,89.85
2023-05-19T02:40:18.606Z,90.58
2023-05-19T02:43:21.010Z,90.84
2023-05-19T02:46:24.153Z,90.99
2023-05-19T02:49:26.696Z,90.60
2023-05-19T02:52:29.623Z,90.77
2023-05-19T02:55:31.980Z,91.22
2023-05-19T02:58:34.594Z,90.68
2023-05-19T03:01:37.797Z,91.23
2023-05-19T03:04:43.055Z,91.59
2023-05-19T03:07:45.715Z,92.03
2023-05-19T03:10:48.693Z,92.37
2023-05-19T03:13:51.158Z,92.39
2023-05-19T03:16:54.135Z,92.60
2023-05-19T03:19:56.572Z,92.73
2023-05-19T03:23:00.396Z,92.59
2023-05-19T03:26:04.273Z,92.73
2023-05-19T03:29:07.960Z,92.77
2023-05-19T03:32:11.212Z,92.50
2023-05-19T03:35:13.892Z,92.00
2023-05-19T03:38:16.434Z,91.95
2023-05-19T03:41:21.314Z,91.75
2023-05-19T03:44:23.724Z,91.64
2023-05-19T03:47:27.553Z,91.29
2023-05-19T03:50:31.747Z,91.01
2023-05-19T03:53:35.725Z,90.65
2023-05-19T03:56:40.022Z,90.26
2023-05-19T03:59:44.029Z,89.88
2023-05-19T04:02:46.593Z,89.87
2023-05-19T04:05:49.423Z,89.84
2023-05-19T04:08:51.853Z,89.69
2023-05-19T04:11:54.538Z,90.01
2023-05-19T04:14:56.935Z,89.87
2023-05-19T04:18:00.380Z,90.05
2023-05-19T04:21:03.071Z,89.39
2023-05-19T04:24:06.667Z,89.21
2023-05-19T04:27:12.283Z,89.07
2023-05-19T04:30:22.147Z,88.86
2023-05-19T04:33:24.748Z,88.51
2023-05-19T04:36:27.607Z,88.86
2023-05-19T04:39:31.534Z,88.69
2023-05-19T04:42:34.947Z,88.60
2023-05-19T04:45:37.777Z,88.04
2023-05-19T04:48:41.283Z,87.77
2023-05-19T04:51:46.129Z,87.60
2023-05-19T04:54:48.815Z,87.18
2023-05-19T04:57:51.174Z,87.24
2023-05-19T05:01:00.930Z,86.68
2023-05-19T05:04:03.954Z,86.49
2023-05-19T05:07:06.921Z,86.01
2023-05-19T05:10:10.284Z,85.55
2023-05-19T05:13:13.271Z,84.93
2023-05-19T05:16:16.808Z,84.83
2023-05-19T05:19:19.911Z,84.68
2023-05-19T05:22:23.381Z,84.76
2023-05-19T05:25:26.407Z,84.05
2023-05-19T05:28:28.850Z,83.40
2023-05-19T05:31:31.745Z,83.38
2023-05-19T05:34:34.604Z,83.18
2023-05-19T05:37:37.524Z,82.58
2023-05-19T05:40:39.929Z,82.19
2023-05-19T05:43:43.506Z,82.36
2023-05-19T05:46:46.284Z,82.02
2023-05-19T05:49:51.598Z,81.84
2023-05-19T05:52:57.610Z,80.58
2023-05-19T05:56:00.985Z,80.25
2023-05-19T05:59:04.243Z,80.32
2023-05-19T06:02:07.322Z,80.78
2023-05-19T06:05:12.448Z,80.69
2023-05-19T06:08:15.242Z,80.59
2023-05-19T06:11:19.658Z,80.06
2023-05-19T06:14:23.038Z,79.41
2023-05-19T06:17:26.433Z,79.26
2023-05-19T06:20:29.202Z,78.42
2023-05-19T06:23:32.427Z,77.09
2023-05-19T06:26:35.096Z,76.31
2023-05-19T06:29:37.992Z,75.83
2023-05-19T06:32:41.722Z,75.93
2023-05-19T06:35:44.562Z,75.34
2023-05-19T06:38:46.949Z,76.17
2023-05-19T06:41:49.868Z,76.34
2023-05-19T06:44:58.949Z,76.31
2023-05-19T06:48:03.699Z,75.78
2023-05-19T06:51:06.475Z,74.34
2023-05-19T06:54:11.143Z,74.04
2023-05-19T06:57:13.591Z,73.67
2023-05-19T07:00:18.794Z,74.25
2023-05-19T07:03:23.461Z,73.52
2023-05-19T07:06:26.761Z,72.11
2023-05-19T07:09:29.308Z,70.39
2023-05-19T07:12:32.506Z,71.23
2023-05-19T07:15:35.268Z,71.17
2023-05-19T07:18:38.994Z,70.90
2023-05-19T07:21:42.492Z,69.88
2023-05-19T07:24:45.367Z,69.09
2023-05-19T07:27:48.326Z,68.77
2023-05-19T07:30:51.334Z,67.07
2023-05-19T07:33:54.846Z,66.33
2023-05-19T07:36:57.559Z,65.36
2023-05-19T07:40:00.076Z,65.05
2023-05-19T07:43:02.816Z,64.75
2023-05-19T07:46:06.178Z,64.44
2023-05-19T07:49:09.011Z,64.52
2023-05-19T07:52:11.466Z,64.21
2023-05-19T07:55:14.962Z,64.65
2023-05-19T07:58:17.521Z,64.53
2023-05-19T08:01:20.156Z,64.60
2023-05-19T08:04:23.020Z,64.75
2023-05-19T08:07:25.607Z,64.59
2023-05-19T08:10:28.453Z,64.85
2023-05-19T08:13:31.390Z,64.08
2023-05-19T08:16:34.134Z,63.83
2023-05-19T08:19:36.592Z,63.77
2023-05-19T08:22:39.296Z,62.84
2023-05-19T08:25:41.941Z,64.51
2023-05-19T08:28:44.684Z,64.43
2023-05-19T08:31:47.270Z,63.33
2023-05-19T08:34:50.034Z,64.66
2023-05-19T08:37:52.457Z,65.75
2023-05-19T08:40:55.314Z,67.16
2023-05-19T08:43:57.764Z,66.19
2023-05-19T08:47:04.985Z,66.33
2023-05-19T08:50:10.821Z,65.35
2023-05-19T08:53:33.366Z,63.24
2023-05-19T08:56:37.699Z,63.00
2023-05-19T08:59:41.538Z,61.92
2023-05-19T09:02:55.028Z,61.62
2023-05-19T09:06:17.237Z,62.70
2023-05-19T09:09:20.102Z,61.88
2023-05-19T09:12:24.024Z,61.16
2023-05-19T09:15:30.777Z,59.77
2023-05-19T09:18:34.026Z,59.64
2023-05-19T09:21:37.310Z,59.37
2023-05-19T09:24:40.811Z,58.39
2023-05-19T09:27:43.230Z,59.03
2023-05-19T09:30:45.997Z,57.47
2023-05-19T09:33:53.239Z,56.26
2023-05-19T09:36:57.833Z,56.55
2023-05-19T09:40:00.635Z,56.95
2023-05-19T09:43:05.561Z,56.97
2023-05-19T09:46:11.869Z,58.18
2023-05-19T09:49:20.549Z,56.98
2023-05-19T09:52:23.259Z,55.13
2023-05-19T09:55:28.808Z,55.28
2023-05-19T09:58:35.447Z,56.49
2023-05-19T10:01:41.273Z,57.09
2023-05-19T10:04:45.105Z,56.76
2023-05-19T10:07:54.649Z,55.84
2023-05-19T10:10:57.939Z,55.72
2023-05-19T10:14:00.789Z,54.93
2023-05-19T10:17:04.120Z,55.65
2023-05-19T10:20:15.731Z,55.44
2023-05-19T10:23:18.722Z,54.20
2023-05-19T10:26:22.520Z,54.18
2023-05-19T10:29:32.420Z,53.37
2023-05-19T10:32:37.428Z,53.40
2023-05-19T10:36:02.585Z,54.53
2023-05-19T10:39:07.874Z,55.61
2023-05-19T10:42:27.904Z,53.86
2023-05-19T10:45:36.691Z,52.66
2023-05-19T10:48:44.963Z,51.46
2023-05-19T10:51:47.413Z,51.87
2023-05-19T10:54:51.461Z,52.91
2023-05-19T10:57:56.883Z,55.08
2023-05-19T11:01:02.512Z,55.44
2023-05-19T11:04:07.163Z,54.80
2023-05-19T11:07:10.545Z,54.74
2023-05-19T11:10:13.458Z,53.23
2023-05-19T11:13:22.677Z,52.31
2023-05-19T11:16:29.986Z,51.14
2023-05-19T11:19:35.343Z,52.92
2023-05-19T11:22:38.890Z,54.27
2023-05-19T11:25:53.952Z,53.49
2023-05-19T11:28:57.148Z,52.54
2023-05-19T11:32:00.725Z,52.12
2023-05-19T11:35:03.380Z,51.46
2023-05-19T11:38:07.239Z,50.87
2023-05-19T11:41:09.651Z,50.18
2023-05-19T11:44:12.327Z,49.96
2023-05-19T11:47:16.056Z,49.83
2023-05-19T11:50:20.330Z,49.95
2023-05-19T11:53:23.303Z,49.62
2023-05-19T11:56:26.186Z,50.03
2023-05-19T11:59:34.159Z,48.68
2023-05-19T12:02:38.529Z,49.34
2023-05-19T12:05:47.156Z,51.04
2023-05-19T12:08:56.251Z,50.96
2023-05-19T12:11:59.079Z,51.51
2023-05-19T12:15:03.666Z,51.05
2023-05-19T12:18:06.862Z,50.54
2023-05-19T12:21:09.383Z,49.78
2023-05-19T12:24:12.175Z,51.09
2023-05-19T12:27:24.492Z,51.60
2023-05-19T12:30:29.763Z,52.12
2023-05-19T12:33:34.278Z,50.32
2023-05-19T12:36:38.631Z,49.92
2023-05-19T12:39:42.470Z,49.78
2023-05-19T12:42:45.629Z,49.17
2023-05-19T12:45:48.714Z,49.42
2023-05-19T12:48:51.806Z,48.33
2023-05-19T12:51:54.449Z,48.42
2023-05-19T12:55:01.626Z,48.96
2023-05-19T12:58:06.967Z,48.63
2023-05-19T13:01:17.572Z,47.81
2023-05-19T13:04:20.215Z,47.83
2023-05-19T13:07:22.926Z,47.77
2023-05-19T13:10:29.550Z,47.45
2023-05-19T13:13:32.409Z,47.45
2023-05-19T13:16:34.871Z,47.85
2023-05-19T13:19:37.843Z,47.65
2023-05-19T13:22:40.628Z,47.50
2023-05-19T13:25:43.786Z,47.05
2023-05-19T13:28:46.161Z,46.90
2023-05-19T13:31:48.861Z,47.28
2023-05-19T13:34:51.225Z,47.97
2023-05-19T13:37:54.114Z,49.01
2023-05-19T13:40:56.595Z,48.47
2023-05-19T13:43:59.817Z,49.41
2023-05-19T13:47:02.382Z,49.58
2023-05-19T13:50:05.740Z,50.46
2023-05-19T13:53:08.270Z,50.27
2023-05-19T13:56:11.093Z,50.09
2023-05-19T13:59:13.621Z,49.69
2023-05-19T14:02:16.311Z,50.02
2023-05-19T14:05:18.962Z,49.27
2023-05-19T14:08:22.114Z,48.38
2023-05-19T14:11:24.835Z,47.01
2023-05-19T14:14:27.308Z,46.52
2023-05-19T14:17:30.013Z,45.64
2023-05-19T14:20:32.500Z,46.29
2023-05-19T14:23:35.547Z,47.10
2023-05-19T14:26:38.087Z,46.87
2023-05-19T14:29:41.860Z,45.98
2023-05-19T14:32:44.367Z,45.27
2023-05-19T14:35:47.215Z,44.92
2023-05-19T14:38:49.730Z,44.52
2023-05-19T14:41:53.041Z,44.15
2023-05-19T14:44:56.003Z,43.41
2023-05-19T14:47:58.888Z,43.65
2023-05-19T14:51:01.415Z,44.87
2023-05-19T14:54:04.137Z,45.64
2023-05-19T14:57:08.202Z,45.86
2023-05-19T15:00:11.558Z,45.81
2023-05-19T15:03:14.125Z,45.09
2023-05-19T15:06:16.806Z,45.16
2023-05-19T15:09:19.266Z,45.25
2023-05-19T15:12:22.156Z,45.70
2023-05-19T15:15:24.590Z,46.35
2023-05-19T15:18:27.312Z,47.26
2023-05-19T15:21:29.730Z,47.40
2023-05-19T15:24:32.464Z,46.77
2023-05-19T15:27:38.001Z,46.30
2023-05-19T15:30:41.148Z,46.20
2023-05-19T15:33:43.536Z,45.55
2023-05-19T15:36:46.845Z,46.18
2023-05-19T15:39:49.460Z,46.91
2023-05-19T15:42:52.138Z,46.96
2023-05-19T15:45:55.274Z,47.95
2023-05-19T15:48:58.104Z,47.42
2023-05-19T15:52:00.618Z,47.28
2023-05-19T15:55:03.429Z,47.62
2023-05-19T15:58:05.964Z,47.85
2023-05-19T16:01:08.980Z,47.24
2023-05-19T16:04:11.837Z,48.21
2023-05-19T16:07:14.357Z,48.74
2023-05-19T16:10:17.107Z,48.91
2023-05-19T16:13:19.457Z,48.79
2023-05-19T16:16:22.181Z,49.09
2023-05-19T16:19:24.785Z,49.24
2023-05-19T16:22:27.652Z,49.11
2023-05-19T16:25:30.181Z,49.54
2023-05-19T16:28:32.976Z,49.51
2023-05-19T16:31:35.494Z,49.77
2023-05-19T16:34:40.567Z,49.99
2023-05-19T16:37:43.102Z,50.17
2023-05-19T16:40:45.841Z,50.52
2023-05-19T16:43:48.316Z,50.16
2023-05-19T16:46:51.055Z,50.17
2023-05-19T16:49:53.495Z,50.23
2023-05-19T16:52:56.265Z,50.70
2023-05-19T16:56:02.046Z,50.78
2023-05-19T16:59:04.814Z,51.29
2023-05-19T17:02:08.250Z,51.56
2023-05-19T17:05:11.008Z,51.44
2023-05-19T17:08:13.488Z,51.97
2023-05-19T17:11:16.184Z,51.90
2023-05-19T17:14:18.561Z,51.99
2023-05-19T17:17:21.501Z,52.04
2023-05-19T17:20:23.891Z,52.27
2023-05-19T17:23:26.608Z,51.52
2023-05-19T17:26:29.038Z,51.25
2023-05-19T17:29:32.356Z,50.99
2023-05-19T17:32:38.636Z,51.26
2023-05-19T17:35:42.234Z,51.64
2023-05-19T17:38:44.669Z,52.14
2023-05-19T17:41:47.430Z,52.95
2023-05-19T17:44:49.874Z,53.45
2023-05-19T17:47:52.633Z,53.50
2023-05-19T17:50:55.303Z,53.58
2023-05-19T17:53:58.766Z,53.79
2023-05-19T17:57:06.569Z,54.09
2023-05-19T18:00:10.613Z,54.67
2023-05-19T18:03:13.854Z,54.71
2023-05-19T18:06:17.709Z,54.99
2023-05-19T18:09:23.175Z,55.10
2023-05-19T18:12:25.599Z,55.53
2023-05-19T18:15:28.377Z,55.88
2023-05-19T18:18:30.888Z,56.09
2023-05-19T18:21:33.844Z,56.34
2023-05-19T18:24:36.246Z,56.85
2023-05-19T18:27:38.971Z,57.30
2023-05-19T18:30:41.493Z,57.97
2023-05-19T18:33:47.141Z,58.46
2023-05-19T18:36:49.764Z,58.34
2023-05-19T18:39:52.582Z,58.20
2023-05-19T18:42:54.996Z,58.30
2023-05-19T18:45:58.341Z,58.92
2023-05-19T18:49:00.869Z,59.80
2023-05-19T18:52:03.593Z,60.32
2023-05-19T18:55:07.212Z,60.80
2023-05-19T18:58:09.945Z,61.28
2023-05-19T19:01:16.410Z,61.67
2023-05-19T19:04:19.385Z,62.03
2023-05-19T19:07:24.212Z,62.57
2023-05-19T19:10:27.424Z,63.18
2023-05-19T19:13:29.777Z,63.78
2023-05-19T19:16:34.716Z,64.10
2023-05-19T19:19:37.336Z,65.03
2023-05-19T19:22:40.185Z,65.60
2023-05-19T19:25:42.547Z,66.06
2023-05-19T19:28:46.347Z,66.53
2023-05-19T19:31:48.974Z,66.99
2023-05-19T19:34:54.644Z,67.42
2023-05-19T19:37:58.453Z,67.44
2023-05-19T19:41:01.270Z,67.97
2023-05-19T19:44:03.831Z,69.15
2023-05-19T19:47:06.862Z,69.79
2023-05-19T19:50:10.602Z,69.78
2023-05-19T19:53:13.276Z,70.34
2023-05-19T19:56:15.752Z,70.54
2023-05-19T19:59:18.520Z,70.67
2023-05-19T20:02:21.678Z,70.72
2023-05-19T20:05:24.495Z,70.89
2023-05-19T20:08:27.356Z,70.55
2023-05-19T20:11:30.513Z,70.66
2023-05-19T20:14:37.858Z,72.21
2023-05-19T20:17:41.401Z,72.58
2023-05-19T20:20:44.028Z,72.57
2023-05-19T20:23:46.960Z,72.75
2023-05-19T20:26:49.250Z,72.97
2023-05-19T20:29:52.015Z,73.01
2023-05-19T20:32:54.425Z,74.18
2023-05-19T20:35:57.178Z,74.27
2023-05-19T20:38:59.721Z,75.29
2023-05-19T20:42:02.436Z,76.04
2023-05-19T20:45:05.182Z,76.24
2023-05-19T20:48:07.887Z,76.55
2023-05-19T20:51:10.278Z,76.69
2023-05-19T20:54:13.243Z,76.33
2023-05-19T20:57:16.341Z,75.74
2023-05-19T21:00:19.093Z,75.88
2023-05-19T21:03:23.380Z,75.55
2023-05-19T21:06:26.369Z,75.65
2023-05-19T21:09:28.932Z,75.81
2023-05-19T21:12:34.402Z,76.14
2023-05-19T21:15:36.928Z,76.51
2023-05-19T21:18:39.627Z,76.75
2023-05-19T21:21:44.763Z,77.19
2023-05-19T21:24:47.592Z,77.82
2023-05-19T21:27:51.447Z,78.24
2023-05-19T21:30:54.179Z,78.59
2023-05-19T21:33:56.767Z,79.07
2023-05-19T21:36:59.532Z,79.41
2023-05-19T21:40:01.913Z,79.71
2023-05-19T21:43:05.925Z,80.07
2023-05-19T21:46:08.446Z,80.18
2023-05-19T21:49:11.153Z,80.67
2023-05-19T21:52:13.555Z,80.98
2023-05-19T21:55:16.275Z,81.06
2023-05-19T21:58:18.866Z,81.26
2023-05-19T22:01:22.592Z,81.21
2023-05-19T22:04:25.456Z,81.46
2023-05-19T22:07:28.618Z,81.26
2023-05-19T22:10:31.810Z,81.26
2023-05-19T22:13:34.428Z,81.09
2023-05-19T22:16:37.202Z,81.17
2023-05-19T22:19:39.587Z,81.42
2023-05-19T22:22:42.271Z,81.84
2023-05-19T22:25:44.705Z,82.35
2023-05-19T22:28:47.343Z,82.48
2023-05-19T22:31:52.267Z,82.53
2023-05-19T22:34:55.024Z,82.29
2023-05-19T22:37:57.478Z,82.29
2023-05-19T22:41:00.157Z,82.12
2023-05-19T22:44:02.507Z,82.02
2023-05-19T22:47:05.314Z,82.05
2023-05-19T22:50:12.362Z,81.75
2023-05-19T22:53:15.181Z,82.12
2023-05-19T22:56:17.648Z,82.33
2023-05-19T22:59:21.594Z,82.74
2023-05-19T23:02:24.046Z,83.05
2023-05-19T23:05:26.681Z,83.42
2023-05-19T23:08:29.391Z,83.38
2023-05-19T23:11:32.127Z,83.28
2023-05-19T23:14:34.659Z,83.18
2023-05-19T23:17:37.617Z,83.17
2023-05-19T23:20:40.013Z,83.02
2023-05-19T23:23:42.772Z,82.96
2023-05-19T23:26:45.223Z,83.23
2023-05-19T23:29:51.327Z,83.93
2023-05-19T23:32:54.025Z,84.11
2023-05-19T23:35:59.249Z,84.09
2023-05-19T23:39:01.766Z,84.12
2023-05-19T23:42:05.727Z,84.11
2023-05-19T23:45:08.557Z,84.21
2023-05-19T23:48:11.579Z,84.38
2023-05-19T23:51:14.076Z,84.60
2023-05-19T23:54:16.715Z,84.89
2023-05-19T23:57:19.124Z,84.99
